Ashland, Ohio
Current Conditions -  °F | °C
As of 4:52 AM on Saturday 22 Nov 2014 (Local Time) from KMFD Reporting Station
Overcast Overcast  
Wind Chill: 18°   Ceiling: 4000
Heat Index: 28°   Visibility: 10mi
Dew Point: 13°   Wind: 12mph
Humidity: 53%   Direction: 170°S
Pressure: 30.26"   Gusts: NA
Location:  40.87°N, 82.31°W
Report Text: KMFD 220952Z AUTO 17010KT 10SM BKN040 OVC055 M02/M11 A3026 RMK AO2 SLP267 T10221106
Loading
Personal Weather Stations






























Interactive Weather Map New forecast layout! Learn more

10-Day Weather Forecast

Advertisements
Track Severe Weather on mobile